Time;durP1;ratioP1;P1;durP2;ratioP2;P2;SDS_P1;SDS_P2;PMS_P1;PMS_P2;Temp;Humidity;BMP_temperature;BMP_pressure;BME280_temperature;BME280_humidity;BME280_pressure;Samples;Min_cycle;Max_cycle;Signal;HPM_P1;HPM_P2
2023/09/25 00:00:18;;;;;;;;;;;;;;;;;;5054268;28;20001;-73
2023/09/25 00:02:44;;;;;;;;;;;;;;;;;;5052398;28;20354;-73
2023/09/25 00:05:10;;;;;;;;;;;;;;;;;;5053905;28;20009;-73
2023/09/25 00:07:36;;;;;;;;;;;;;;;;;;5054025;28;19985;-72
2023/09/25 00:10:02;;;;;;;;;;;;;;;;;;5054081;28;20440;-73
2023/09/25 00:12:28;;;;;;;;;;;;;;;;;;5054051;28;19989;-73
2023/09/25 00:14:54;;;;;;;;;;;;;;;;;;5053685;28;20064;-73
2023/09/25 00:17:20;;;;;;;;;;;;;;;;;;5053875;28;20002;-73
2023/09/25 00:19:46;;;;;;;;;;;;;;;;;;5052578;28;19981;-73
2023/09/25 00:22:12;;;;;;;;;;;;;;;;;;5053711;28;20158;-72
2023/09/25 00:24:38;;;;;;;;;;;;;;;;;;5053490;28;20055;-71
2023/09/25 00:27:04;;;;;;;;;;;;;;;;;;5053570;28;20430;-73
2023/09/25 00:29:30;;;;;;;;;;;;;;;;;;5053624;28;20458;-73
2023/09/25 00:31:57;;;;;;;;;;;;;;;;;;5052140;28;20012;-74
2023/09/25 00:34:23;;;;;;;;;;;;;;;;;;5053352;28;20028;-72
2023/09/25 00:36:48;;;;;;;;;;;;;;;;;;5053112;28;20009;-73
2023/09/25 00:39:14;;;;;;;;;;;;;;;;;;5053196;28;20306;-72
2023/09/25 00:41:40;;;;;;;;;;;;;;;;;;5053090;28;19994;-73
2023/09/25 00:44:06;;;;;;;;;;;;;;;;;;5053303;28;20112;-72
2023/09/25 00:46:32;;;;;;;;;;;;;;;;;;5053035;28;20080;-72
2023/09/25 00:48:58;;;;;;;;;;;;;;;;;;5051569;28;20040;-72
2023/09/25 00:51:25;;;;;;;;;;;;;;;;;;5052864;28;19997;-72
2023/09/25 00:53:51;;;;;;;;;;;;;;;;;;5052954;28;20033;-71
2023/09/25 00:56:17;;;;;;;;;;;;;;;;;;5053006;28;20025;-72
2023/09/25 00:58:43;;;;;;;;;;;;;;;;;;5052930;28;20024;-73
2023/09/25 01:01:09;;;;;;;;;;;;;;;;;;5051324;28;19986;-72
2023/09/25 01:03:35;;;;;;;;;;;;;;;;;;5052811;28;19985;-73
2023/09/25 01:06:01;;;;;;;;;;;;;;;;;;5052546;28;20596;-73
2023/09/25 01:08:27;;;;;;;;;;;;;;;;;;5051408;28;19993;-72
2023/09/25 01:10:53;;;;;;;;;;;;;;;;;;5052483;28;19990;-74
2023/09/25 01:13:19;;;;;;;;;;;;;;;;;;5052424;28;19982;-73
2023/09/25 01:15:45;;;;;;;;;;;;;;;;;;5051393;28;20059;-71
2023/09/25 01:18:12;;;;;;;;;;;;;;;;;;5052506;28;20056;-74
2023/09/25 01:20:38;;;;;;;;;;;;;;;;;;5052442;28;19986;-74
2023/09/25 01:23:04;;;;;;;;;;;;;;;;;;5052070;28;19982;-71
2023/09/25 01:25:29;;;;;;;;;;;;;;;;;;5052183;28;20445;-73
2023/09/25 01:27:55;;;;;;;;;;;;;;;;;;5052312;28;20047;-72
2023/09/25 01:30:21;;;;;;;;;;;;;;;;;;5052393;28;19986;-72
2023/09/25 01:32:49;;;;;;;;;;;;;;;;;;5052187;28;20322;-74
2023/09/25 01:35:16;;;;;;;;;;;;;;;;;;5051758;28;20100;-72
2023/09/25 01:37:42;;;;;;;;;;;;;;;;;;5051873;28;20470;-72
2023/09/25 01:40:17;;;;;;;;;;;;;;;;;;5051941;28;20433;-72
2023/09/25 01:42:43;;;;;;;;;;;;;;;;;;5051979;28;19992;-73
2023/09/25 01:45:10;;;;;;;;;;;;;;;;;;5051792;28;20022;-73
2023/09/25 01:47:37;;;;;;;;;;;;;;;;;;5051775;28;20039;-73
2023/09/25 01:50:03;;;;;;;;;;;;;;;;;;5051610;28;20020;-72
2023/09/25 01:52:29;;;;;;;;;;;;;;;;;;5052054;28;20041;-72
2023/09/25 01:54:55;;;;;;;;;;;;;;;;;;5051891;28;20024;-73
2023/09/25 01:57:21;;;;;;;;;;;;;;;;;;5051456;28;20052;-71
2023/09/25 01:59:47;;;;;;;;;;;;;;;;;;5051653;28;20526;-71
2023/09/25 02:02:13;;;;;;;;;;;;;;;;;;5051571;28;20068;-73
2023/09/25 02:04:39;;;;;;;;;;;;;;;;;;5051467;28;19982;-72
2023/09/25 02:07:05;;;;;;;;;;;;;;;;;;5051810;28;19993;-73
2023/09/25 02:09:31;;;;;;;;;;;;;;;;;;5051175;28;20079;-72
2023/09/25 02:11:57;;;;;;;;;;;;;;;;;;5051624;28;19986;-71
2023/09/25 02:14:23;;;;;;;;;;;;;;;;;;5051353;28;19992;-72
2023/09/25 02:16:49;;;;;;;;;;;;;;;;;;5051373;28;20029;-72
2023/09/25 02:19:16;;;;;;;;;;;;;;;;;;5051281;28;20025;-72
2023/09/25 02:21:42;;;;;;;;;;;;;;;;;;5051166;28;19988;-72
2023/09/25 02:24:08;;;;;;;;;;;;;;;;;;5051576;28;19990;-72
2023/09/25 02:26:34;;;;;;;;;;;;;;;;;;5051204;28;20153;-72
2023/09/25 02:29:00;;;;;;;;;;;;;;;;;;5051387;28;20005;-72
2023/09/25 02:31:26;;;;;;;;;;;;;;;;;;5051076;28;19985;-72
2023/09/25 02:33:52;;;;;;;;;;;;;;;;;;5051010;28;20438;-73
2023/09/25 02:36:18;;;;;;;;;;;;;;;;;;5051164;28;19990;-72
2023/09/25 02:38:44;;;;;;;;;;;;;;;;;;5051142;28;20055;-72
2023/09/25 02:41:10;;;;;;;;;;;;;;;;;;5051191;28;19985;-72
2023/09/25 02:43:36;;;;;;;;;;;;;;;;;;5052142;28;20117;-72
2023/09/25 02:46:02;;;;;;;;;;;;;;;;;;5055194;28;19986;-72
2023/09/25 02:48:27;;;;;;;;;;;;;;;;;;5055091;28;19982;-73
2023/09/25 02:50:53;;;;;;;;;;;;;;;;;;5055230;28;19990;-73
2023/09/25 02:53:19;;;;;;;;;;;;;;;;;;5055146;28;19982;-72
2023/09/25 02:55:45;;;;;;;;;;;;;;;;;;5054899;28;19983;-72
2023/09/25 02:58:11;;;;;;;;;;;;;;;;;;5054877;28;20006;-73
2023/09/25 03:00:37;;;;;;;;;;;;;;;;;;5055020;28;20028;-72
2023/09/25 03:03:03;;;;;;;;;;;;;;;;;;5055027;28;19990;-72
2023/09/25 03:05:29;;;;;;;;;;;;;;;;;;5054655;28;20002;-72
2023/09/25 03:07:55;;;;;;;;;;;;;;;;;;5054722;28;20085;-72
2023/09/25 03:10:21;;;;;;;;;;;;;;;;;;5054752;28;20036;-73
2023/09/25 03:12:47;;;;;;;;;;;;;;;;;;5054833;28;20036;-73
2023/09/25 03:15:13;;;;;;;;;;;;;;;;;;5054790;28;19992;-73
2023/09/25 03:17:39;;;;;;;;;;;;;;;;;;5054304;28;20045;-72
2023/09/25 03:20:17;;;;;;;;;;;;;;;;;;5054611;28;20032;-71
2023/09/25 03:22:43;;;;;;;;;;;;;;;;;;5054799;28;19990;-71
2023/09/25 03:25:10;;;;;;;;;;;;;;;;;;5054526;28;20086;-73
2023/09/25 03:27:36;;;;;;;;;;;;;;;;;;5054560;28;19982;-72
2023/09/25 03:30:02;;;;;;;;;;;;;;;;;;5054217;28;20052;-73
2023/09/25 03:32:28;;;;;;;;;;;;;;;;;;5054310;28;20030;-72
2023/09/25 03:34:54;;;;;;;;;;;;;;;;;;5054681;28;19985;-73
2023/09/25 03:37:20;;;;;;;;;;;;;;;;;;5054417;28;20010;-72
2023/09/25 03:39:46;;;;;;;;;;;;;;;;;;5054532;28;20039;-71
2023/09/25 03:42:12;;;;;;;;;;;;;;;;;;5053916;28;20005;-73
2023/09/25 03:44:38;;;;;;;;;;;;;;;;;;5054071;28;20017;-73
2023/09/25 03:47:04;;;;;;;;;;;;;;;;;;5054264;28;20001;-73
2023/09/25 03:49:30;;;;;;;;;;;;;;;;;;5054328;28;19986;-73
2023/09/25 03:51:56;;;;;;;;;;;;;;;;;;5053982;28;20421;-72
2023/09/25 03:54:22;;;;;;;;;;;;;;;;;;5053992;28;19986;-72
2023/09/25 03:56:48;;;;;;;;;;;;;;;;;;5053948;28;19988;-72
2023/09/25 03:59:14;;;;;;;;;;;;;;;;;;5053753;28;20014;-72
2023/09/25 04:01:40;;;;;;;;;;;;;;;;;;5054008;28;20617;-72
2023/09/25 04:04:06;;;;;;;;;;;;;;;;;;5053446;28;19985;-73
2023/09/25 04:06:33;;;;;;;;;;;;;;;;;;5053535;28;20060;-72
2023/09/25 04:08:59;;;;;;;;;;;;;;;;;;5053736;28;20008;-72
2023/09/25 04:11:25;;;;;;;;;;;;;;;;;;5053740;28;20513;-73
2023/09/25 04:13:51;;;;;;;;;;;;;;;;;;5053703;28;19982;-72
2023/09/25 04:16:17;;;;;;;;;;;;;;;;;;5053206;28;19994;-71
2023/09/25 04:18:43;;;;;;;;;;;;;;;;;;5053577;28;20017;-73
2023/09/25 04:21:14;;;;;;;;;;;;;;;;;;5053614;28;19982;-72
2023/09/25 04:23:40;;;;;;;;;;;;;;;;;;5053667;28;19986;-72
2023/09/25 04:26:06;;;;;;;;;;;;;;;;;;5053395;28;19982;-73
2023/09/25 04:28:32;;;;;;;;;;;;;;;;;;5053155;28;19986;-73
2023/09/25 04:30:59;;;;;;;;;;;;;;;;;;5053467;28;20004;-73
2023/09/25 04:33:25;;;;;;;;;;;;;;;;;;5053126;28;19993;-72
2023/09/25 04:35:52;;;;;;;;;;;;;;;;;;5053077;28;19986;-72
2023/09/25 04:38:18;;;;;;;;;;;;;;;;;;5053025;28;20465;-72
2023/09/25 04:40:46;;;;;;;;;;;;;;;;;;5053081;28;19985;-73
2023/09/25 04:43:12;;;;;;;;;;;;;;;;;;5053250;28;19986;-73
2023/09/25 04:45:38;;;;;;;;;;;;;;;;;;5053110;28;20000;-73
2023/09/25 04:48:04;;;;;;;;;;;;;;;;;;5052961;28;20445;-73
2023/09/25 04:50:30;;;;;;;;;;;;;;;;;;5052929;28;19982;-73
2023/09/25 04:52:56;;;;;;;;;;;;;;;;;;5052927;28;20021;-74
2023/09/25 04:55:22;;;;;;;;;;;;;;;;;;5052698;28;19990;-73
2023/09/25 04:57:48;;;;;;;;;;;;;;;;;;5052830;28;20075;-72
2023/09/25 05:00:16;;;;;;;;;;;;;;;;;;5052833;28;19986;-73
2023/09/25 05:02:42;;;;;;;;;;;;;;;;;;5052371;28;20047;-72
2023/09/25 05:05:08;;;;;;;;;;;;;;;;;;5058217;28;20150;-70
2023/09/25 05:07:35;;;;;;;;;;;;;;;;;;5051773;28;19986;-69
2023/09/25 05:10:01;;;;;;;;;;;;;;;;;;5052440;28;20450;-71
2023/09/25 05:12:27;;;;;;;;;;;;;;;;;;5051955;28;19982;-71
2023/09/25 05:14:53;;;;;;;;;;;;;;;;;;5052319;28;19993;-71
2023/09/25 05:17:19;;;;;;;;;;;;;;;;;;5052239;28;20462;-71
2023/09/25 05:19:45;;;;;;;;;;;;;;;;;;5052311;28;20075;-71
2023/09/25 05:22:11;;;;;;;;;;;;;;;;;;5052022;28;19988;-71
2023/09/25 05:24:37;;;;;;;;;;;;;;;;;;5051772;28;19990;-69
2023/09/25 05:27:03;;;;;;;;;;;;;;;;;;5052210;28;19986;-71
2023/09/25 05:29:29;;;;;;;;;;;;;;;;;;5052270;28;19997;-72
2023/09/25 05:31:55;;;;;;;;;;;;;;;;;;5052212;28;19986;-70
2023/09/25 05:34:21;;;;;;;;;;;;;;;;;;5051805;28;19989;-71
2023/09/25 05:36:47;;;;;;;;;;;;;;;;;;5051651;28;19993;-71
2023/09/25 05:39:13;;;;;;;;;;;;;;;;;;5061525;28;20013;-73
2023/09/25 05:41:39;;;;;;;;;;;;;;;;;;5072094;28;20060;-72
2023/09/25 05:44:05;;;;;;;;;;;;;;;;;;5071205;28;20013;-70
2023/09/25 05:46:31;;;;;;;;;;;;;;;;;;5071725;28;19993;-71
2023/09/25 05:48:58;;;;;;;;;;;;;;;;;;5071309;28;20479;-72
2023/09/25 05:51:24;;;;;;;;;;;;;;;;;;5071737;28;20114;-71
2023/09/25 05:53:50;;;;;;;;;;;;;;;;;;5071126;28;20007;-71
2023/09/25 05:56:16;;;;;;;;;;;;;;;;;;5070012;28;20365;-72
2023/09/25 05:58:42;;;;;;;;;;;;;;;;;;5069483;28;20036;-72
2023/09/25 06:01:08;;;;;;;;;;;;;;;;;;5070065;28;20465;-71
2023/09/25 06:03:35;;;;;;;;;;;;;;;;;;5070015;28;19989;-72
2023/09/25 06:06:01;;;;;;;;;;;;;;;;;;5070102;28;20453;-70
2023/09/25 06:08:27;;;;;;;;;;;;;;;;;;5070265;28;19985;-70
2023/09/25 06:10:53;;;;;;;;;;;;;;;;;;5061302;28;19990;-70
2023/09/25 06:13:19;;;;;;;;;;;;;;;;;;5050030;28;19981;-71
2023/09/25 06:15:46;;;;;;;;;;;;;;;;;;5051336;28;19983;-70
2023/09/25 06:18:12;;;;;;;;;;;;;;;;;;5049706;28;20016;-70
2023/09/25 06:20:43;;;;;;;;;;;;;;;;;;5051013;28;19981;-70
2023/09/25 06:23:09;;;;;;;;;;;;;;;;;;5051205;28;20540;-70
2023/09/25 06:25:35;;;;;;;;;;;;;;;;;;5051281;28;19985;-71
2023/09/25 06:28:02;;;;;;;;;;;;;;;;;;5051438;28;19982;-70
2023/09/25 06:30:30;;;;;;;;;;;;;;;;;;5051448;28;19993;-71
2023/09/25 06:32:56;;;;;;;;;;;;;;;;;;5050690;28;20062;-69
2023/09/25 06:35:22;;;;;;;;;;;;;;;;;;5051071;28;20304;-71
2023/09/25 06:37:47;;;;;;;;;;;;;;;;;;5051703;28;20009;-70
2023/09/25 06:40:15;;;;;;;;;;;;;;;;;;5051406;28;19991;-70
2023/09/25 06:42:41;;;;;;;;;;;;;;;;;;5051434;28;20069;-71
2023/09/25 06:45:08;;;;;;;;;;;;;;;;;;5050798;28;20120;-69
2023/09/25 06:47:34;;;;;;;;;;;;;;;;;;5051076;28;20112;-71
2023/09/25 06:50:00;;;;;;;;;;;;;;;;;;5050709;28;19985;-71
2023/09/25 06:52:25;;;;;;;;;;;;;;;;;;5051115;28;20457;-69
2023/09/25 06:54:51;;;;;;;;;;;;;;;;;;5051075;28;19982;-69
2023/09/25 06:57:17;;;;;;;;;;;;;;;;;;5051119;28;20031;-70
2023/09/25 06:59:43;;;;;;;;;;;;;;;;;;5051090;28;20012;-69
2023/09/25 07:02:10;;;;;;;;;;;;;;;;;;5050832;28;20012;-69
2023/09/25 07:04:37;;;;;;;;;;;;;;;;;;5050830;28;20025;-70
2023/09/25 07:07:03;;;;;;;;;;;;;;;;;;5051381;28;20043;-70
2023/09/25 07:09:29;;;;;;;;;;;;;;;;;;5051021;28;20080;-70
2023/09/25 07:11:55;;;;;;;;;;;;;;;;;;5051198;28;20395;-70
2023/09/25 07:14:21;;;;;;;;;;;;;;;;;;5050967;28;19986;-71
2023/09/25 07:16:47;;;;;;;;;;;;;;;;;;5050932;28;20009;-69
2023/09/25 07:19:13;;;;;;;;;;;;;;;;;;5050425;28;20470;-70
2023/09/25 07:21:41;;;;;;;;;;;;;;;;;;5051099;28;19986;-70
2023/09/25 07:24:07;;;;;;;;;;;;;;;;;;5050932;28;20029;-69
2023/09/25 07:26:32;;;;;;;;;;;;;;;;;;5050861;28;20040;-70
2023/09/25 07:28:58;;;;;;;;;;;;;;;;;;5051237;28;19986;-71
2023/09/25 07:31:26;;;;;;;;;;;;;;;;;;5054229;28;19994;-70
2023/09/25 07:33:54;;;;;;;;;;;;;;;;;;5054228;28;20327;-70
2023/09/25 07:36:20;;;;;;;;;;;;;;;;;;5054164;28;19990;-69
2023/09/25 07:38:46;;;;;;;;;;;;;;;;;;5054196;28;20017;-70
2023/09/25 07:41:12;;;;;;;;;;;;;;;;;;5054120;28;20032;-70
2023/09/25 07:43:38;;;;;;;;;;;;;;;;;;5053446;28;20061;-70
2023/09/25 07:46:04;;;;;;;;;;;;;;;;;;5054055;28;20100;-71
2023/09/25 07:48:35;;;;;;;;;;;;;;;;;;5054057;28;20069;-69
2023/09/25 07:51:01;;;;;;;;;;;;;;;;;;5054051;28;20466;-70
2023/09/25 07:53:28;;;;;;;;;;;;;;;;;;5053944;28;19989;-69
2023/09/25 07:55:54;;;;;;;;;;;;;;;;;;5053679;28;19997;-70
2023/09/25 07:58:20;;;;;;;;;;;;;;;;;;5054034;28;20013;-70
2023/09/25 08:00:46;;;;;;;;;;;;;;;;;;5053938;28;19985;-70
2023/09/25 08:03:17;;;;;;;;;;;;;;;;;;5052585;28;19996;-70
2023/09/25 08:05:43;;;;;;;;;;;;;;;;;;5053437;28;20002;-70
2023/09/25 08:08:11;;;;;;;;;;;;;;;;;;5053854;28;20055;-70
2023/09/25 08:10:37;;;;;;;;;;;;;;;;;;5053764;28;20104;-70
2023/09/25 08:13:03;;;;;;;;;;;;;;;;;;5053620;28;20021;-69
2023/09/25 08:15:29;;;;;;;;;;;;;;;;;;5053717;28;20025;-69
2023/09/25 08:17:55;;;;;;;;;;;;;;;;;;5053310;28;20109;-69
2023/09/25 08:20:22;;;;;;;;;;;;;;;;;;5052146;28;20029;-69
2023/09/25 08:22:48;;;;;;;;;;;;;;;;;;5053269;28;20088;-70
2023/09/25 08:25:14;;;;;;;;;;;;;;;;;;5053575;28;19986;-70
2023/09/25 08:27:40;;;;;;;;;;;;;;;;;;5053521;28;20379;-69
2023/09/25 08:30:06;;;;;;;;;;;;;;;;;;5053131;28;20039;-70
2023/09/25 08:32:32;;;;;;;;;;;;;;;;;;5053283;28;19986;-70
2023/09/25 08:34:58;;;;;;;;;;;;;;;;;;5053347;28;20446;-71
2023/09/25 08:37:24;;;;;;;;;;;;;;;;;;5053372;28;20005;-70
2023/09/25 08:39:50;;;;;;;;;;;;;;;;;;5052882;28;20064;-69
2023/09/25 08:42:16;;;;;;;;;;;;;;;;;;5052203;28;19998;-69
2023/09/25 08:44:42;;;;;;;;;;;;;;;;;;5052882;28;20049;-69
2023/09/25 08:47:08;;;;;;;;;;;;;;;;;;5052981;28;20508;-68
2023/09/25 08:49:34;;;;;;;;;;;;;;;;;;5053292;28;20143;-70
2023/09/25 08:52:00;;;;;;;;;;;;;;;;;;5052615;28;19994;-69
2023/09/25 08:54:26;;;;;;;;;;;;;;;;;;5052822;28;20025;-70
2023/09/25 08:56:52;;;;;;;;;;;;;;;;;;5052913;28;20024;-70
2023/09/25 08:59:19;;;;;;;;;;;;;;;;;;5052720;28;20111;-69
2023/09/25 09:01:45;;;;;;;;;;;;;;;;;;5052777;28;20491;-69
2023/09/25 09:04:10;;;;;;;;;;;;;;;;;;5052450;28;20454;-70
2023/09/25 09:06:37;;;;;;;;;;;;;;;;;;5052728;28;19998;-68
2023/09/25 09:09:03;;;;;;;;;;;;;;;;;;5052580;28;19985;-69
2023/09/25 09:11:29;;;;;;;;;;;;;;;;;;5052447;28;20035;-69
2023/09/25 09:13:55;;;;;;;;;;;;;;;;;;5052379;28;19985;-69
2023/09/25 09:16:21;;;;;;;;;;;;;;;;;;5052630;28;19996;-70
2023/09/25 09:18:47;;;;;;;;;;;;;;;;;;5052287;28;20013;-69
2023/09/25 09:21:13;;;;;;;;;;;;;;;;;;5052406;28;20047;-69
2023/09/25 09:23:40;;;;;;;;;;;;;;;;;;5052310;28;20043;-70
2023/09/25 09:26:07;;;;;;;;;;;;;;;;;;5052344;28;19998;-70
2023/09/25 09:28:33;;;;;;;;;;;;;;;;;;5052263;28;19997;-72
2023/09/25 09:30:59;;;;;;;;;;;;;;;;;;5052118;28;20043;-70
2023/09/25 09:33:29;;;;;;;;;;;;;;;;;;5052097;28;20059;-71
2023/09/25 09:35:55;;;;;;;;;;;;;;;;;;5052009;28;19996;-68
2023/09/25 09:38:20;;;;;;;;;;;;;;;;;;5052136;28;20006;-69
2023/09/25 09:40:46;;;;;;;;;;;;;;;;;;5051829;28;20021;-69
2023/09/25 09:43:12;;;;;;;;;;;;;;;;;;5051695;28;20465;-69
2023/09/25 09:45:38;;;;;;;;;;;;;;;;;;5052028;28;19993;-70
2023/09/25 09:48:04;;;;;;;;;;;;;;;;;;5051895;28;19989;-69
2023/09/25 09:50:30;;;;;;;;;;;;;;;;;;5051919;28;19982;-69
2023/09/25 09:52:59;;;;;;;;;;;;;;;;;;5051643;28;20069;-69
2023/09/25 09:55:26;;;;;;;;;;;;;;;;;;5051533;28;20462;-70
2023/09/25 09:57:54;;;;;;;;;;;;;;;;;;5051887;28;20009;-70
2023/09/25 10:00:20;;;;;;;;;;;;;;;;;;5051771;28;20024;-70
2023/09/25 10:02:46;;;;;;;;;;;;;;;;;;5051829;28;19993;-69
2023/09/25 10:05:11;;;;;;;;;;;;;;;;;;5051470;28;19998;-69
2023/09/25 10:07:37;;;;;;;;;;;;;;;;;;5051525;28;19993;-70
2023/09/25 10:10:04;;;;;;;;;;;;;;;;;;5051270;28;20104;-70
2023/09/25 10:12:30;;;;;;;;;;;;;;;;;;5051668;28;19992;-70
2023/09/25 10:14:56;;;;;;;;;;;;;;;;;;5051681;28;19990;-70
2023/09/25 10:17:21;;;;;;;;;;;;;;;;;;5051294;28;20404;-69
2023/09/25 10:19:47;;;;;;;;;;;;;;;;;;5051436;28;20021;-69
2023/09/25 10:22:13;;;;;;;;;;;;;;;;;;5051301;28;20362;-69
2023/09/25 10:24:39;;;;;;;;;;;;;;;;;;5051317;28;19985;-70
2023/09/25 10:27:05;;;;;;;;;;;;;;;;;;5051490;28;19986;-69
2023/09/25 10:29:31;;;;;;;;;;;;;;;;;;5051438;28;20007;-70
2023/09/25 10:31:57;;;;;;;;;;;;;;;;;;5051342;28;20397;-69
2023/09/25 10:34:25;;;;;;;;;;;;;;;;;;5051098;28;19986;-69
2023/09/25 10:36:52;;;;;;;;;;;;;;;;;;5051524;28;20002;-70
2023/09/25 10:39:18;;;;;;;;;;;;;;;;;;5051414;28;20013;-68
2023/09/25 10:41:47;;;;;;;;;;;;;;;;;;5051530;28;20414;-70
2023/09/25 10:44:13;;;;;;;;;;;;;;;;;;5050967;28;20022;-67
2023/09/25 10:46:39;;;;;;;;;;;;;;;;;;5051142;28;20431;-70
2023/09/25 10:49:05;;;;;;;;;;;;;;;;;;5051432;28;19989;-69
2023/09/25 10:51:31;;;;;;;;;;;;;;;;;;5051301;28;19992;-71
2023/09/25 10:53:57;;;;;;;;;;;;;;;;;;5051427;28;20162;-70
2023/09/25 10:56:23;;;;;;;;;;;;;;;;;;5051480;28;19989;-69
2023/09/25 10:58:52;;;;;;;;;;;;;;;;;;5051075;28;20381;-70
2023/09/25 11:01:18;;;;;;;;;;;;;;;;;;5051240;28;19982;-70
2023/09/25 11:03:44;;;;;;;;;;;;;;;;;;5050986;28;19992;-69
2023/09/25 11:06:09;;;;;;;;;;;;;;;;;;5054599;28;20002;-70
2023/09/25 11:08:35;;;;;;;;;;;;;;;;;;5054985;28;20036;-69
2023/09/25 11:11:02;;;;;;;;;;;;;;;;;;5053765;28;19992;-69
2023/09/25 11:13:28;;;;;;;;;;;;;;;;;;5054949;28;19989;-70
2023/09/25 11:15:54;;;;;;;;;;;;;;;;;;5054851;28;20458;-69
2023/09/25 11:18:20;;;;;;;;;;;;;;;;;;5055159;28;20001;-69
2023/09/25 11:20:48;;;;;;;;;;;;;;;;;;5054807;28;19986;-69
2023/09/25 11:23:14;;;;;;;;;;;;;;;;;;5054842;28;19989;-69
2023/09/25 11:25:41;;;;;;;;;;;;;;;;;;5054765;28;19986;-70
2023/09/25 11:28:07;;;;;;;;;;;;;;;;;;5054774;28;19985;-68
2023/09/25 11:30:34;;;;;;;;;;;;;;;;;;5054593;28;19988;-69
2023/09/25 11:33:00;;;;;;;;;;;;;;;;;;5054592;28;20183;-69
2023/09/25 11:35:27;;;;;;;;;;;;;;;;;;5054200;28;20491;-69
2023/09/25 11:37:53;;;;;;;;;;;;;;;;;;5054274;28;20100;-69
2023/09/25 11:40:20;;;;;;;;;;;;;;;;;;5054334;28;19989;-70
2023/09/25 11:42:46;;;;;;;;;;;;;;;;;;5054159;28;19989;-70
2023/09/25 11:45:14;;;;;;;;;;;;;;;;;;5054193;28;20024;-70
2023/09/25 11:47:40;;;;;;;;;;;;;;;;;;5054167;28;20012;-69
2023/09/25 11:50:06;;;;;;;;;;;;;;;;;;5054163;28;19985;-69
2023/09/25 11:52:32;;;;;;;;;;;;;;;;;;5054428;28;20016;-69
2023/09/25 11:54:59;;;;;;;;;;;;;;;;;;5054109;28;19986;-71
2023/09/25 11:57:25;;;;;;;;;;;;;;;;;;5053946;28;20492;-70
2023/09/25 11:59:52;;;;;;;;;;;;;;;;;;5054243;28;19990;-70
2023/09/25 12:02:18;;;;;;;;;;;;;;;;;;5053923;28;20055;-69
2023/09/25 12:04:45;;;;;;;;;;;;;;;;;;5053838;28;20017;-70
2023/09/25 12:07:11;;;;;;;;;;;;;;;;;;5053840;28;20025;-70
2023/09/25 12:09:37;;;;;;;;;;;;;;;;;;5054195;28;20469;-70
2023/09/25 12:12:03;;;;;;;;;;;;;;;;;;5053789;28;20330;-69
2023/09/25 12:14:29;;;;;;;;;;;;;;;;;;5053564;28;20025;-69
2023/09/25 12:16:55;;;;;;;;;;;;;;;;;;5053579;28;19989;-70
2023/09/25 12:19:21;;;;;;;;;;;;;;;;;;5053378;28;20068;-70
2023/09/25 12:21:47;;;;;;;;;;;;;;;;;;5053536;28;20456;-69
2023/09/25 12:24:13;;;;;;;;;;;;;;;;;;5052275;28;19986;-70
2023/09/25 12:26:39;;;;;;;;;;;;;;;;;;5053352;28;19990;-69
2023/09/25 12:29:07;;;;;;;;;;;;;;;;;;5053308;28;19986;-71
2023/09/25 12:31:33;;;;;;;;;;;;;;;;;;5053283;28;20551;-69
2023/09/25 12:33:58;;;;;;;;;;;;;;;;;;5053398;28;19981;-70
2023/09/25 12:36:24;;;;;;;;;;;;;;;;;;5053374;28;20029;-70
2023/09/25 12:38:50;;;;;;;;;;;;;;;;;;5052980;28;20060;-70
2023/09/25 12:41:16;;;;;;;;;;;;;;;;;;5053549;28;19981;-70
2023/09/25 12:43:42;;;;;;;;;;;;;;;;;;5052957;28;20083;-69
2023/09/25 12:46:08;;;;;;;;;;;;;;;;;;5053344;28;20396;-70
2023/09/25 12:48:34;;;;;;;;;;;;;;;;;;5053228;28;19986;-70
2023/09/25 12:51:00;;;;;;;;;;;;;;;;;;5053233;28;20088;-70
2023/09/25 12:53:26;;;;;;;;;;;;;;;;;;5052925;28;20095;-69
2023/09/25 12:55:52;;;;;;;;;;;;;;;;;;5053030;28;19982;-70
2023/09/25 12:58:17;;;;;;;;;;;;;;;;;;5052977;28;20114;-70
2023/09/25 13:00:44;;;;;;;;;;;;;;;;;;5052936;28;20453;-69
2023/09/25 13:03:10;;;;;;;;;;;;;;;;;;5052507;28;19986;-69
2023/09/25 13:05:36;;;;;;;;;;;;;;;;;;5052816;28;20091;-69
2023/09/25 13:08:01;;;;;;;;;;;;;;;;;;5052687;28;20426;-70
2023/09/25 13:10:28;;;;;;;;;;;;;;;;;;5052789;28;19993;-69
2023/09/25 13:12:53;;;;;;;;;;;;;;;;;;5052416;28;20478;-71
2023/09/25 13:15:20;;;;;;;;;;;;;;;;;;5052795;28;20025;-69
2023/09/25 13:17:46;;;;;;;;;;;;;;;;;;5052709;28;20010;-70
2023/09/25 13:20:12;;;;;;;;;;;;;;;;;;5052273;28;20035;-69
2023/09/25 13:22:38;;;;;;;;;;;;;;;;;;5052870;28;19985;-69
2023/09/25 13:25:04;;;;;;;;;;;;;;;;;;5052285;28;20447;-69
2023/09/25 13:27:30;;;;;;;;;;;;;;;;;;5050492;28;19985;-71
2023/09/25 13:29:56;;;;;;;;;;;;;;;;;;5052260;28;20028;-72
2023/09/25 13:32:22;;;;;;;;;;;;;;;;;;5052280;28;20039;-69
2023/09/25 13:34:48;;;;;;;;;;;;;;;;;;5052166;28;19985;-69
2023/09/25 13:37:13;;;;;;;;;;;;;;;;;;5052370;28;20438;-70
2023/09/25 13:39:39;;;;;;;;;;;;;;;;;;5050721;28;20116;-69
2023/09/25 13:42:05;;;;;;;;;;;;;;;;;;5051925;28;19989;-69
2023/09/25 13:44:31;;;;;;;;;;;;;;;;;;5051799;28;20028;-69
2023/09/25 13:46:57;;;;;;;;;;;;;;;;;;5052213;28;20335;-70
2023/09/25 13:49:23;;;;;;;;;;;;;;;;;;5051803;28;20111;-69
2023/09/25 13:51:49;;;;;;;;;;;;;;;;;;5051993;28;20008;-70
2023/09/25 13:54:15;;;;;;;;;;;;;;;;;;5051903;28;20365;-69
2023/09/25 13:56:41;;;;;;;;;;;;;;;;;;5050583;28;19993;-69
2023/09/25 13:59:07;;;;;;;;;;;;;;;;;;5051551;28;20021;-70
2023/09/25 14:01:35;;;;;;;;;;;;;;;;;;5051844;28;20024;-69
2023/09/25 14:04:01;;;;;;;;;;;;;;;;;;5051941;28;19990;-70
2023/09/25 14:06:30;;;;;;;;;;;;;;;;;;5051887;28;20002;-69
2023/09/25 14:08:56;;;;;;;;;;;;;;;;;;5052037;28;20025;-70
2023/09/25 14:11:22;;;;;;;;;;;;;;;;;;5051500;28;19993;-70
2023/09/25 14:13:48;;;;;;;;;;;;;;;;;;5051713;28;20452;-68
2023/09/25 14:16:14;;;;;;;;;;;;;;;;;;5051661;28;20084;-68
2023/09/25 14:18:39;;;;;;;;;;;;;;;;;;5051776;28;20013;-69
2023/09/25 14:21:05;;;;;;;;;;;;;;;;;;5051624;28;20455;-70
2023/09/25 14:23:31;;;;;;;;;;;;;;;;;;5051385;28;19982;-70
2023/09/25 14:25:57;;;;;;;;;;;;;;;;;;5051587;28;20440;-69
2023/09/25 14:28:23;;;;;;;;;;;;;;;;;;5051922;28;20044;-68
2023/09/25 14:30:49;;;;;;;;;;;;;;;;;;5051287;28;19992;-69
2023/09/25 14:33:15;;;;;;;;;;;;;;;;;;5048995;28;19989;-68
2023/09/25 14:35:41;;;;;;;;;;;;;;;;;;5034255;28;20013;-69
2023/09/25 14:38:07;;;;;;;;;;;;;;;;;;5043443;28;20009;-68
2023/09/25 14:40:33;;;;;;;;;;;;;;;;;;5047227;28;19990;-70
2023/09/25 14:43:00;;;;;;;;;;;;;;;;;;5055221;28;20350;-69
2023/09/25 14:45:25;;;;;;;;;;;;;;;;;;5052027;28;20018;-69
2023/09/25 14:47:52;;;;;;;;;;;;;;;;;;5055470;28;20430;-69
2023/09/25 14:50:18;;;;;;;;;;;;;;;;;;5055248;28;20350;-68
2023/09/25 14:52:45;;;;;;;;;;;;;;;;;;5055186;28;19982;-68
2023/09/25 14:55:11;;;;;;;;;;;;;;;;;;5054898;28;20085;-67
2023/09/25 14:57:42;;;;;;;;;;;;;;;;;;5047003;28;20411;-68
2023/09/25 15:00:09;;;;;;;;;;;;;;;;;;5044116;28;19996;-69
2023/09/25 15:02:35;;;;;;;;;;;;;;;;;;5054803;28;19985;-69
2023/09/25 15:05:01;;;;;;;;;;;;;;;;;;5054773;28;19997;-69
2023/09/25 15:07:33;;;;;;;;;;;;;;;;;;5044921;28;19993;-71
2023/09/25 15:09:59;;;;;;;;;;;;;;;;;;5046292;28;19986;-68
2023/09/25 15:12:25;;;;;;;;;;;;;;;;;;5045128;28;19989;-68
2023/09/25 15:14:51;;;;;;;;;;;;;;;;;;5039945;28;19990;-69
2023/09/25 15:17:17;;;;;;;;;;;;;;;;;;5036217;28;20016;-68
2023/09/25 15:19:43;;;;;;;;;;;;;;;;;;5039093;28;20009;-69
2023/09/25 15:22:09;;;;;;;;;;;;;;;;;;5054609;28;20011;-69
2023/09/25 15:24:35;;;;;;;;;;;;;;;;;;5053049;28;20028;-70
2023/09/25 15:27:01;;;;;;;;;;;;;;;;;;5051212;28;20028;-69
2023/09/25 15:29:27;;;;;;;;;;;;;;;;;;5052320;28;20068;-69
2023/09/25 15:31:53;;;;;;;;;;;;;;;;;;5054314;28;19986;-67
2023/09/25 15:34:18;;;;;;;;;;;;;;;;;;5035139;28;19994;-70
2023/09/25 15:36:44;;;;;;;;;;;;;;;;;;5034435;28;19992;-69
2023/09/25 15:39:10;;;;;;;;;;;;;;;;;;5053294;28;20410;-68
2023/09/25 15:41:36;;;;;;;;;;;;;;;;;;5054304;28;20036;-69
2023/09/25 15:44:02;;;;;;;;;;;;;;;;;;5043682;28;20014;-67
2023/09/25 15:46:28;;;;;;;;;;;;;;;;;;5034188;28;19990;-68
2023/09/25 15:48:54;;;;;;;;;;;;;;;;;;5034043;28;20419;-68
2023/09/25 15:51:20;;;;;;;;;;;;;;;;;;5031817;28;19986;-68
2023/09/25 15:53:46;;;;;;;;;;;;;;;;;;5032385;28;20005;-68
2023/09/25 15:56:12;;;;;;;;;;;;;;;;;;5032187;28;20470;-69
2023/09/25 15:58:38;;;;;;;;;;;;;;;;;;5035460;28;20014;-69
2023/09/25 16:01:04;;;;;;;;;;;;;;;;;;5032857;28;20047;-69
2023/09/25 16:03:30;;;;;;;;;;;;;;;;;;5037083;28;19986;-69
2023/09/25 16:05:56;;;;;;;;;;;;;;;;;;5045651;28;20401;-68
2023/09/25 16:08:22;;;;;;;;;;;;;;;;;;5033925;28;20274;-69
2023/09/25 16:10:48;;;;;;;;;;;;;;;;;;5052394;28;20354;-71
2023/09/25 16:13:14;;;;;;;;;;;;;;;;;;5043736;28;19997;-69
2023/09/25 16:15:40;;;;;;;;;;;;;;;;;;5033362;28;19990;-69
2023/09/25 16:18:06;;;;;;;;;;;;;;;;;;5033412;28;20370;-69
2023/09/25 16:20:32;;;;;;;;;;;;;;;;;;5033650;28;19982;-68
2023/09/25 16:22:59;;;;;;;;;;;;;;;;;;5046387;28;20060;-69
2023/09/25 16:25:25;;;;;;;;;;;;;;;;;;5045008;28;19990;-69
2023/09/25 16:27:51;;;;;;;;;;;;;;;;;;5053480;28;20392;-69
2023/09/25 16:30:17;;;;;;;;;;;;;;;;;;5050389;28;20069;-72
2023/09/25 16:32:42;;;;;;;;;;;;;;;;;;5045933;28;20090;-69
2023/09/25 16:35:08;;;;;;;;;;;;;;;;;;5033313;28;19997;-69
2023/09/25 16:37:35;;;;;;;;;;;;;;;;;;5033399;28;20060;-68